Time;durP1;ratioP1;P1;durP2;ratioP2;P2;SDS_P1;SDS_P2;PMS_P1;PMS_P2;Temp;Humidity;BMP_temperature;BMP_pressure;BME280_temperature;BME280_humidity;BME280_pressure;Samples;Min_cycle;Max_cycle;Signal;HPM_P1;HPM_P2
2021/12/18 00:07:49;;;;;;;8.43;4.10;;;;;;;3.05;100.00;101972.66;21054001;27;20276;-58
2021/12/18 00:17:53;;;;;;;7.50;3.90;;;;;;;3.06;100.00;101950.66;21001546;27;20232;-57
2021/12/18 00:27:56;;;;;;;8.07;3.53;;;;;;;3.08;100.00;101950.66;21028932;28;20305;-58
2021/12/18 00:38:02;;;;;;;8.13;4.10;;;;;;;3.07;100.00;101986.72;20995699;28;20231;-60
2021/12/18 00:58:03;;;;;;;9.33;4.70;;;;;;;2.62;100.00;102008.06;21075758;27;20604;-58
2021/12/18 01:08:06;;;;;;;7.67;4.10;;;;;;;1.92;100.00;101987.25;21140646;27;20305;-57
2021/12/18 01:28:32;;;;;;;7.17;4.40;;;;;;;0.85;100.00;101981.06;21140771;27;20270;-58
2021/12/18 01:38:35;;;;;;;9.63;5.63;;;;;;;0.46;100.00;101988.00;21138990;27;20691;-57
2021/12/18 02:08:33;;;;;;;12.73;5.30;;;;;;;-0.32;100.00;101997.16;21067995;27;20564;-57
2021/12/18 02:48:55;;;;;;;7.70;4.37;;;;;;;0.89;100.00;101991.59;21212035;27;20556;-58
2021/12/18 02:59:04;;;;;;;6.87;4.30;;;;;;;1.20;100.00;102016.22;21226883;27;20308;-58
2021/12/18 03:09:36;;;;;;;11.07;6.37;;;;;;;1.36;100.00;102011.81;21226127;27;20254;-58
2021/12/18 03:29:37;;;;;;;7.87;4.83;;;;;;;1.66;100.00;101964.47;20982666;27;20569;-58
2021/12/18 03:39:41;;;;;;;9.20;4.93;;;;;;;1.77;100.00;101978.50;20974551;28;20231;-58
2021/12/18 03:59:41;;;;;;;10.00;5.03;;;;;;;1.85;100.00;101990.75;21054123;27;20651;-58
2021/12/18 04:09:47;;;;;;;7.93;5.47;;;;;;;1.93;100.00;101979.34;21058250;28;20219;-58
2021/12/18 04:19:50;;;;;;;7.53;4.40;;;;;;;2.05;100.00;101996.88;21057806;28;20226;-58
2021/12/18 04:29:54;;;;;;;11.57;4.83;;;;;;;2.09;100.00;101995.97;21057127;28;20231;-59
2021/12/18 04:39:57;;;;;;;8.67;4.67;;;;;;;2.09;100.00;101990.69;21055915;28;20363;-58
2021/12/18 04:50:00;;;;;;;9.37;5.30;;;;;;;2.17;100.00;101979.25;21055021;28;20248;-58
2021/12/18 05:00:07;;;;;;;9.20;5.13;;;;;;;2.19;100.00;101973.97;21054462;28;20233;-59
2021/12/18 05:10:11;;;;;;;7.43;5.00;;;;;;;2.23;100.00;101978.34;20968290;28;20280;-58
2021/12/18 05:20:15;;;;;;;11.23;7.37;;;;;;;2.29;100.00;101969.56;20996282;28;20230;-58
2021/12/18 05:40:18;;;;;;;8.97;4.87;;;;;;;2.29;100.00;101956.41;21049158;27;20627;-58
2021/12/18 05:50:24;;;;;;;7.73;4.80;;;;;;;2.36;100.00;101966.03;21058310;27;20325;-58
2021/12/18 06:00:33;;;;;;;7.37;4.63;;;;;;;2.40;100.00;101971.28;21057624;27;20229;-58
2021/12/18 06:40:37;;;;;;;7.00;4.03;;;;;;;2.49;100.00;101955.41;21062701;27;20579;-58
2021/12/18 06:50:40;;;;;;;8.43;4.30;;;;;;;2.52;100.00;101965.06;21058728;28;20229;-57
2021/12/18 07:00:44;;;;;;;8.50;4.50;;;;;;;2.56;100.00;101958.00;21058228;28;20313;-58
2021/12/18 07:10:47;;;;;;;105.87;20.80;;;;;;;2.57;100.00;101922.88;21056902;28;20703;-58
2021/12/18 07:20:52;;;;;;;11.80;7.50;;;;;;;2.58;100.00;101917.59;21055737;28;20598;-58
2021/12/18 07:30:56;;;;;;;51.67;13.60;;;;;;;2.41;100.00;101925.63;21055366;28;20656;-58
2021/12/18 07:40:59;;;;;;;15.93;10.37;;;;;;;2.36;100.00;101926.50;21054831;28;20229;-58
2021/12/18 07:51:02;;;;;;;14.80;11.43;;;;;;;2.36;100.00;101958.13;21003115;28;20241;-58
2021/12/18 08:01:06;;;;;;;17.00;11.53;;;;;;;2.38;100.00;101954.59;20997410;28;20231;-58
2021/12/18 08:11:09;;;;;;;20.10;12.57;;;;;;;2.47;100.00;101948.41;20994203;28;20233;-58
2021/12/18 08:21:15;;;;;;;66.43;18.47;;;;;;;2.47;100.00;101962.44;20968988;28;20951;-58
2021/12/18 08:31:18;;;;;;;30.80;17.93;;;;;;;2.43;100.00;101950.16;20959469;28;20241;-58
2021/12/18 08:41:22;;;;;;;111.80;25.43;;;;;;;2.42;100.00;101926.44;20991505;28;20290;-58
2021/12/18 08:51:26;;;;;;;32.07;17.97;;;;;;;2.41;100.00;101903.66;20984716;28;20242;-60
2021/12/18 09:11:26;;;;;;;26.43;17.53;;;;;;;2.35;100.00;101870.31;21094409;27;20571;-65
2021/12/18 09:21:30;;;;;;;27.47;17.67;;;;;;;2.44;100.00;101849.16;20945880;28;20237;-68
2021/12/18 09:31:33;;;;;;;23.93;17.83;;;;;;;2.47;100.00;101822.81;20941840;28;20232;-61
2021/12/18 09:51:35;;;;;;;26.27;17.93;;;;;;;2.46;100.00;101843.88;20952012;27;20665;-58
2021/12/18 10:01:39;;;;;;;30.67;19.77;;;;;;;2.61;100.00;101811.28;20931090;28;20273;-61
2021/12/18 10:51:29;;;;;;;32.43;23.20;;;;;;;2.51;100.00;101727.06;20953203;27;20604;-61
2021/12/18 11:01:33;;;;;;;36.23;25.00;;;;;;;2.45;100.00;101695.47;20939913;28;20668;-61
2021/12/18 11:41:59;;;;;;;30.23;19.27;;;;;;;2.24;100.00;101673.72;20937276;27;20600;-66
2021/12/18 11:53:36;;;;;;;34.50;22.67;;;;;;;2.26;100.00;101656.16;20914430;27;20591;-64
2021/12/18 12:03:48;;;;;;;37.87;23.97;;;;;;;2.30;100.00;101632.38;20922674;28;20336;-64
2021/12/18 12:13:52;;;;;;;29.90;21.17;;;;;;;2.31;100.00;101615.69;20903276;28;20237;-61
2021/12/18 12:24:05;;;;;;;30.90;18.10;;;;;;;2.36;100.00;101577.03;20929281;28;20233;-64
2021/12/18 12:44:17;;;;;;;26.30;19.70;;;;;;;2.38;100.00;101561.22;20778331;28;20578;-65
2021/12/18 13:04:18;;;;;;;30.17;19.23;;;;;;;2.33;100.00;101536.66;20854000;27;20581;-60
2021/12/18 13:14:21;;;;;;;30.00;20.07;;;;;;;2.30;100.00;101536.69;20840026;28;20726;-60
2021/12/18 13:24:25;;;;;;;31.00;20.87;;;;;;;2.36;100.00;101531.38;20820572;28;20561;-62
2021/12/18 13:34:32;;;;;;;33.20;20.20;;;;;;;2.40;100.00;101515.53;20889036;28;20265;-59
2021/12/18 14:14:59;;;;;;;61.83;29.50;;;;;;;2.50;100.00;101482.03;20853793;27;20601;-60
2021/12/18 14:25:15;;;;;;;63.17;28.73;;;;;;;2.49;100.00;101475.00;20842784;28;21149;-60
2021/12/18 14:44:34;;;;;;;56.97;27.07;;;;;;;2.62;100.00;101436.22;20848267;27;20565;-59
2021/12/18 14:54:54;;;;;;;50.63;27.40;;;;;;;2.70;100.00;101436.97;20889774;28;20267;-59
2021/12/18 15:05:10;;;;;;;51.23;26.27;;;;;;;2.76;100.00;101415.81;20936979;28;20261;-60
2021/12/18 15:15:15;;;;;;;46.17;28.13;;;;;;;2.79;100.00;101405.19;20933164;28;20234;-60
2021/12/18 15:25:19;;;;;;;45.27;27.50;;;;;;;2.83;100.00;101388.44;20914765;28;20611;-62
2021/12/18 15:35:23;;;;;;;39.70;24.97;;;;;;;2.87;100.00;101377.84;20927327;28;20630;-63
2021/12/18 15:45:26;;;;;;;37.93;24.73;;;;;;;2.85;100.00;101358.53;20915885;28;20227;-60
2021/12/18 15:55:31;;;;;;;35.27;25.57;;;;;;;2.88;100.00;101352.34;20879588;28;20245;-63
2021/12/18 16:05:38;;;;;;;36.80;25.73;;;;;;;2.95;100.00;101332.00;20841036;28;20800;-63
2021/12/18 16:15:44;;;;;;;35.03;23.83;;;;;;;3.00;100.00;101309.09;20870530;28;20239;-61
2021/12/18 16:25:50;;;;;;;34.90;23.43;;;;;;;3.03;100.00;101291.44;20842947;28;20324;-59
2021/12/18 16:38:53;;;;;;;33.03;21.73;;;;;;;3.08;100.00;101297.50;20968381;27;20555;-65
2021/12/18 16:48:58;;;;;;;31.30;21.30;;;;;;;3.17;100.00;101315.78;20998180;28;20302;-65
2021/12/18 16:59:02;;;;;;;23.83;18.23;;;;;;;3.25;100.00;101284.03;20986226;28;20234;-63
2021/12/18 17:09:06;;;;;;;23.50;17.83;;;;;;;3.31;100.00;101267.19;21003127;28;20230;-63
2021/12/18 17:19:13;;;;;;;30.60;19.60;;;;;;;3.31;100.00;101236.41;20989010;28;20241;-63
2021/12/18 17:29:26;;;;;;;24.10;18.70;;;;;;;3.32;100.00;101243.41;20989875;28;20245;-66
2021/12/18 17:39:31;;;;;;;27.43;21.27;;;;;;;3.40;100.00;101220.38;20995343;28;20252;-64
2021/12/18 17:49:35;;;;;;;27.87;20.07;;;;;;;3.40;100.00;101195.75;20916255;28;20268;-62
2021/12/18 17:59:38;;;;;;;30.83;21.17;;;;;;;3.41;100.00;101181.69;20945772;28;20230;-62
2021/12/18 18:09:42;;;;;;;29.07;20.73;;;;;;;3.44;100.00;101173.69;20928032;28;20238;-59
2021/12/18 18:19:48;;;;;;;33.00;21.30;;;;;;;3.46;100.00;101182.47;20932702;28;20222;-59
2021/12/18 18:29:52;;;;;;;40.80;22.73;;;;;;;3.51;100.00;101192.00;20925917;28;20808;-58
2021/12/18 18:39:57;;;;;;;40.17;23.77;;;;;;;3.52;100.00;101195.50;20929323;28;20234;-61
2021/12/18 18:50:09;;;;;;;31.13;21.63;;;;;;;3.62;100.00;101152.22;20934131;28;20238;-59
2021/12/18 19:00:18;;;;;;;40.13;23.70;;;;;;;3.67;100.00;101137.13;20937233;28;20234;-59
2021/12/18 19:10:22;;;;;;;40.13;24.80;;;;;;;3.71;100.00;101120.31;20932916;28;20230;-59
2021/12/18 19:20:28;;;;;;;34.87;22.83;;;;;;;3.75;100.00;101121.09;20918188;28;20223;-58
2021/12/18 19:30:33;;;;;;;39.10;24.00;;;;;;;3.74;100.00;101098.28;20933855;28;20227;-59
2021/12/18 19:40:41;;;;;;;36.53;22.73;;;;;;;3.75;100.00;101079.72;20913923;28;20222;-60
2021/12/18 20:00:52;;;;;;;35.23;21.17;;;;;;;3.78;100.00;101016.31;20959065;27;20948;-59
2021/12/18 20:11:02;;;;;;;33.50;19.87;;;;;;;3.82;100.00;101023.25;20982173;27;20231;-58
2021/12/18 20:31:10;;;;;;;28.60;18.70;;;;;;;3.93;100.00;100984.22;20967813;27;3975708;-58
2021/12/18 20:41:21;;;;;;;34.07;19.70;;;;;;;3.90;100.00;100989.59;21105810;28;20225;-58
2021/12/18 20:51:27;;;;;;;27.57;17.77;;;;;;;3.95;100.00;100969.22;21119317;28;20225;-58
2021/12/18 21:11:37;;;;;;;25.27;17.87;;;;;;;3.96;100.00;100941.91;21130425;27;20558;-59
2021/12/18 21:21:42;;;;;;;24.43;17.47;;;;;;;3.97;100.00;100938.38;21033097;28;20254;-58
2021/12/18 21:31:49;;;;;;;18.37;14.80;;;;;;;4.06;100.00;100952.22;21085173;28;20749;-59
2021/12/18 21:41:55;;;;;;;17.83;13.70;;;;;;;4.06;100.00;100931.09;21040969;28;20920;-58
2021/12/18 22:02:02;;;;;;;13.07;11.63;;;;;;;4.10;100.00;100901.91;21013714;27;20591;-59
2021/12/18 22:12:06;;;;;;;12.13;10.47;;;;;;;4.15;100.00;100864.78;21027403;28;20233;-59
2021/12/18 22:22:14;;;;;;;16.70;13.70;;;;;;;4.17;100.00;100849.78;21032511;28;20264;-58
2021/12/18 22:32:18;;;;;;;18.27;15.27;;;;;;;4.08;100.00;100828.94;21031905;28;20252;-59
2021/12/18 22:52:17;;;;;;;15.47;12.43;;;;;;;3.97;100.00;100811.63;20960938;27;20596;-58
2021/12/18 23:12:25;;;;;;;17.30;12.73;;;;;;;3.98;100.00;100771.06;20925031;27;20600;-58
2021/12/18 23:22:29;;;;;;;13.00;10.97;;;;;;;3.92;100.00;100744.00;20889399;28;20223;-58
2021/12/18 23:32:33;;;;;;;8.43;7.53;;;;;;;3.80;100.00;100739.97;20889930;28;20307;-58
2021/12/18 23:42:42;;;;;;;8.20;7.33;;;;;;;3.77;100.00;100729.50;20967439;28;20722;-59
2021/12/18 23:52:45;;;;;;;7.80;7.00;;;;;;;3.79;100.00;100693.34;20969327;28;20231;-58
